ITY1629 LIML-LIBR
Flight info
| Callsign | ITY1629 |
|---|---|
| Flight time | 1h 22m |
| Altitude | 35000 |
| Route | LOGDI DCT LURUT DCT ANC DCT GERBU DCT UTENO DCT OTRET DCT PES DCT DIVKU DCT LUXIL/N0368F190 L995 ROBOT |
| Aircraft | A320/M-SDE3FGHIRWY/LB1 |
Departure
| Time | 2026-04-25 15:23 |
|---|---|
| Airport | Milano Linate Airport (LIML) |
Arrival
| Time | 2026-04-25 16:45 |
|---|---|
| Airport | Brindisi Airport (LIBR) |
| Time | Latitude | Longitude | Altitude | Speed | Heading |
|---|---|---|---|---|---|
| 2026-04-25 15:00 | 45.45970 | 9.27905 | 363 ft | 0 kts | 2° |
| 2026-04-25 15:12 | 45.45939 | 9.27902 | 363 ft | 2 kts | 6° |
| 2026-04-25 15:12 | 45.45923 | 9.27899 | 363 ft | 2 kts | 15° |
| 2026-04-25 15:12 | 45.45908 | 9.27889 | 363 ft | 2 kts | 76° |
| 2026-04-25 15:12 | 45.45907 | 9.27877 | 366 ft | 1 kts | 91° |
| 2026-04-25 15:13 | 45.45907 | 9.27874 | 366 ft | 0 kts | 91° |
| 2026-04-25 15:14 | 45.45907 | 9.27877 | 366 ft | 2 kts | 91° |
| 2026-04-25 15:14 | 45.45907 | 9.27930 | 363 ft | 9 kts | 90° |
| 2026-04-25 15:14 | 45.45874 | 9.27984 | 363 ft | 9 kts | 166° |
| 2026-04-25 15:14 | 45.45788 | 9.27985 | 366 ft | 15 kts | 180° |
| 2026-04-25 15:15 | 45.45766 | 9.27985 | 363 ft | 0 kts | 180° |
| 2026-04-25 15:17 | 45.45738 | 9.27985 | 363 ft | 9 kts | 180° |
| 2026-04-25 15:18 | 45.45648 | 9.27984 | 367 ft | 16 kts | 181° |
| 2026-04-25 15:18 | 45.45406 | 9.27979 | 361 ft | 18 kts | 180° |
| 2026-04-25 15:18 | 45.45285 | 9.27912 | 363 ft | 20 kts | 207° |
| 2026-04-25 15:19 | 45.45150 | 9.27875 | 360 ft | 21 kts | 175° |
| 2026-04-25 15:19 | 45.45103 | 9.27880 | 359 ft | 21 kts | 176° |
| 2026-04-25 15:19 | 45.44874 | 9.27932 | 362 ft | 19 kts | 163° |
| 2026-04-25 15:19 | 45.44734 | 9.27953 | 361 ft | 21 kts | 175° |
| 2026-04-25 15:20 | 45.44635 | 9.27964 | 361 ft | 22 kts | 175° |
| 2026-04-25 15:20 | 45.44421 | 9.27986 | 363 ft | 24 kts | 176° |
| 2026-04-25 15:20 | 45.44250 | 9.28006 | 357 ft | 25 kts | 175° |
| 2026-04-25 15:20 | 45.44071 | 9.28025 | 352 ft | 26 kts | 176° |
| 2026-04-25 15:21 | 45.43884 | 9.28045 | 355 ft | 27 kts | 176° |
| 2026-04-25 15:21 | 45.43691 | 9.28065 | 350 ft | 28 kts | 175° |
| 2026-04-25 15:21 | 45.43544 | 9.28081 | 349 ft | 13 kts | 175° |
| 2026-04-25 15:21 | 45.43464 | 9.28043 | 356 ft | 14 kts | 237° |
| 2026-04-25 15:22 | 45.43424 | 9.27914 | 349 ft | 14 kts | 264° |
| 2026-04-25 15:22 | 45.43470 | 9.27817 | 353 ft | 14 kts | 352° |
| 2026-04-25 15:22 | 45.43699 | 9.27793 | 351 ft | 66 kts | 355° |
| 2026-04-25 15:22 | 45.44395 | 9.27718 | 360 ft | 131 kts | 356° |
| 2026-04-25 15:23 | 45.45448 | 9.27604 | 640 ft | 151 kts | 354° |
| 2026-04-25 15:23 | 45.46504 | 9.27583 | 1217 ft | 154 kts | 8° |
| 2026-04-25 15:23 | 45.47575 | 9.27772 | 1682 ft | 161 kts | 4° |
| 2026-04-25 15:23 | 45.48772 | 9.27946 | 1857 ft | 188 kts | 4° |
| 2026-04-25 15:24 | 45.50181 | 9.28148 | 2055 ft | 211 kts | 6° |
| 2026-04-25 15:24 | 45.51597 | 9.28536 | 2825 ft | 203 kts | 21° |
| 2026-04-25 15:24 | 45.52780 | 9.29594 | 3507 ft | 202 kts | 44° |
| 2026-04-25 15:24 | 45.53093 | 9.30073 | 3702 ft | 202 kts | 52° |
| 2026-04-25 15:25 | 45.53911 | 9.33238 | 4446 ft | 220 kts | 90° |
| 2026-04-25 15:25 | 45.53589 | 9.35455 | 4733 ft | 240 kts | 116° |
| 2026-04-25 15:25 | 45.52516 | 9.37396 | 5040 ft | 263 kts | 144° |
| 2026-04-25 15:25 | 45.50825 | 9.38545 | 5693 ft | 275 kts | 162° |
| 2026-04-25 15:26 | 45.49030 | 9.39580 | 6465 ft | 282 kts | 150° |
| 2026-04-25 15:26 | 45.47573 | 9.41478 | 7200 ft | 288 kts | 126° |
| 2026-04-25 15:26 | 45.46446 | 9.43850 | 7991 ft | 291 kts | 124° |
| 2026-04-25 15:26 | 45.45312 | 9.46264 | 8785 ft | 295 kts | 124° |
| 2026-04-25 15:27 | 45.44165 | 9.48707 | 9562 ft | 299 kts | 124° |
| 2026-04-25 15:27 | 45.42982 | 9.51215 | 10308 ft | 304 kts | 124° |
| 2026-04-25 15:27 | 45.40446 | 9.56562 | 10811 ft | 347 kts | 124° |
| 2026-04-25 15:28 | 45.39078 | 9.59433 | 11350 ft | 355 kts | 126° |
| 2026-04-25 15:28 | 45.37472 | 9.62124 | 12014 ft | 358 kts | 137° |
| 2026-04-25 15:28 | 45.35511 | 9.64312 | 12688 ft | 360 kts | 149° |
| 2026-04-25 15:28 | 45.33360 | 9.66172 | 13384 ft | 363 kts | 150° |
| 2026-04-25 15:29 | 45.31925 | 9.67411 | 13842 ft | 366 kts | 150° |
| 2026-04-25 15:29 | 45.29744 | 9.69304 | 14435 ft | 369 kts | 150° |
| 2026-04-25 15:29 | 45.27550 | 9.71214 | 15034 ft | 371 kts | 151° |
| 2026-04-25 15:29 | 45.25337 | 9.73141 | 15654 ft | 374 kts | 151° |
| 2026-04-25 15:30 | 45.23110 | 9.75080 | 16256 ft | 377 kts | 152° |
| 2026-04-25 15:30 | 45.20866 | 9.77029 | 16839 ft | 380 kts | 152° |
| 2026-04-25 15:30 | 45.18601 | 9.78995 | 17449 ft | 383 kts | 152° |
| 2026-04-25 15:30 | 45.16288 | 9.81003 | 18049 ft | 386 kts | 152° |
| 2026-04-25 15:31 | 45.14020 | 9.82969 | 18558 ft | 389 kts | 153° |
| 2026-04-25 15:31 | 45.11667 | 9.85006 | 19046 ft | 393 kts | 153° |
| 2026-04-25 15:31 | 45.09326 | 9.87031 | 19526 ft | 397 kts | 153° |
| 2026-04-25 15:31 | 45.06958 | 9.89079 | 20009 ft | 401 kts | 153° |
| 2026-04-25 15:32 | 45.04566 | 9.91144 | 20488 ft | 404 kts | 153° |
| 2026-04-25 15:32 | 45.02156 | 9.93218 | 20972 ft | 408 kts | 153° |
| 2026-04-25 15:32 | 44.99719 | 9.95311 | 21442 ft | 412 kts | 153° |
| 2026-04-25 15:33 | 44.94785 | 9.99552 | 22436 ft | 417 kts | 153° |
| 2026-04-25 15:33 | 44.92296 | 10.01687 | 22861 ft | 421 kts | 153° |
| 2026-04-25 15:33 | 44.89781 | 10.03838 | 23289 ft | 425 kts | 153° |
| 2026-04-25 15:33 | 44.87242 | 10.06011 | 23694 ft | 428 kts | 152° |
| 2026-04-25 15:34 | 44.84681 | 10.08201 | 24054 ft | 431 kts | 152° |
| 2026-04-25 15:34 | 44.82110 | 10.10395 | 24425 ft | 433 kts | 152° |
| 2026-04-25 15:34 | 44.79523 | 10.12601 | 24778 ft | 436 kts | 152° |
| 2026-04-25 15:34 | 44.77768 | 10.14100 | 25016 ft | 437 kts | 152° |
| 2026-04-25 15:35 | 44.72255 | 10.20528 | 25796 ft | 450 kts | 130° |
| 2026-04-25 15:35 | 44.70509 | 10.24202 | 26154 ft | 454 kts | 120° |
| 2026-04-25 15:35 | 44.69245 | 10.28282 | 26510 ft | 457 kts | 109° |
| 2026-04-25 15:36 | 44.67244 | 10.36793 | 27258 ft | 460 kts | 109° |
| 2026-04-25 15:36 | 44.66226 | 10.41064 | 27582 ft | 462 kts | 109° |
| 2026-04-25 15:36 | 44.65197 | 10.45349 | 27903 ft | 464 kts | 110° |
| 2026-04-25 15:37 | 44.64161 | 10.49648 | 28208 ft | 466 kts | 110° |
| 2026-04-25 15:37 | 44.63123 | 10.53957 | 28509 ft | 468 kts | 110° |
| 2026-04-25 15:37 | 44.62126 | 10.58097 | 28780 ft | 469 kts | 110° |
| 2026-04-25 15:37 | 44.61061 | 10.62513 | 29083 ft | 471 kts | 110° |
| 2026-04-25 15:38 | 44.60010 | 10.66877 | 29371 ft | 472 kts | 110° |
| 2026-04-25 15:38 | 44.58952 | 10.71253 | 29644 ft | 474 kts | 110° |
| 2026-04-25 15:38 | 44.57873 | 10.75688 | 29908 ft | 476 kts | 110° |
| 2026-04-25 15:38 | 44.56799 | 10.80098 | 30151 ft | 477 kts | 110° |
| 2026-04-25 15:39 | 44.55729 | 10.84504 | 30364 ft | 479 kts | 110° |
| 2026-04-25 15:39 | 44.54652 | 10.88932 | 30566 ft | 480 kts | 110° |
| 2026-04-25 15:39 | 44.53574 | 10.93367 | 30763 ft | 482 kts | 110° |
| 2026-04-25 15:39 | 44.52463 | 10.97793 | 31014 ft | 481 kts | 113° |
| 2026-04-25 15:40 | 44.51040 | 11.02024 | 31285 ft | 479 kts | 118° |
| 2026-04-25 15:40 | 44.50044 | 11.04768 | 31455 ft | 478 kts | 118° |
| 2026-04-25 15:40 | 44.48027 | 11.10327 | 31817 ft | 478 kts | 118° |
| 2026-04-25 15:40 | 44.46522 | 11.14471 | 32096 ft | 477 kts | 118° |
| 2026-04-25 15:41 | 44.45025 | 11.18603 | 32376 ft | 476 kts | 118° |
| 2026-04-25 15:41 | 44.43527 | 11.22734 | 32672 ft | 475 kts | 118° |
| 2026-04-25 15:41 | 44.42037 | 11.26843 | 32916 ft | 473 kts | 118° |
| 2026-04-25 15:41 | 44.40548 | 11.30951 | 33225 ft | 472 kts | 118° |
| 2026-04-25 15:42 | 44.39063 | 11.35033 | 33514 ft | 471 kts | 118° |
| 2026-04-25 15:42 | 44.37574 | 11.39110 | 33804 ft | 470 kts | 118° |
| 2026-04-25 15:42 | 44.36088 | 11.43165 | 34080 ft | 469 kts | 118° |
| 2026-04-25 15:42 | 44.34597 | 11.47230 | 34327 ft | 469 kts | 118° |
| 2026-04-25 15:43 | 44.33094 | 11.51324 | 34550 ft | 468 kts | 118° |
| 2026-04-25 15:43 | 44.31610 | 11.55369 | 34787 ft | 468 kts | 118° |
| 2026-04-25 15:43 | 44.30127 | 11.59409 | 34985 ft | 468 kts | 118° |
| 2026-04-25 15:43 | 44.28645 | 11.63438 | 35039 ft | 466 kts | 118° |
| 2026-04-25 15:44 | 44.25684 | 11.71450 | 35027 ft | 464 kts | 119° |
| 2026-04-25 15:44 | 44.22726 | 11.79434 | 35018 ft | 463 kts | 119° |
| 2026-04-25 15:45 | 44.19766 | 11.87407 | 35012 ft | 463 kts | 119° |
| 2026-04-25 15:45 | 44.17782 | 11.92740 | 35006 ft | 463 kts | 119° |
| 2026-04-25 15:46 | 44.13825 | 12.03341 | 34999 ft | 463 kts | 119° |
| 2026-04-25 15:46 | 44.10842 | 12.11279 | 35013 ft | 463 kts | 119° |
| 2026-04-25 15:47 | 44.07867 | 12.19208 | 35044 ft | 463 kts | 119° |
| 2026-04-25 15:47 | 44.04890 | 12.27142 | 35046 ft | 462 kts | 119° |
| 2026-04-25 15:48 | 44.01898 | 12.35048 | 35042 ft | 462 kts | 119° |
| 2026-04-25 15:48 | 43.98898 | 12.42948 | 35044 ft | 462 kts | 119° |
| 2026-04-25 15:49 | 43.95892 | 12.50871 | 35045 ft | 461 kts | 120° |
| 2026-04-25 15:49 | 43.92898 | 12.58731 | 35040 ft | 460 kts | 120° |
| 2026-04-25 15:50 | 43.89905 | 12.66571 | 35039 ft | 460 kts | 120° |
| 2026-04-25 15:50 | 43.86908 | 12.74394 | 35038 ft | 459 kts | 119° |
| 2026-04-25 15:51 | 43.84906 | 12.79621 | 35042 ft | 458 kts | 120° |
| 2026-04-25 15:51 | 43.80911 | 12.89981 | 35044 ft | 458 kts | 120° |
| 2026-04-25 15:52 | 43.77910 | 12.97746 | 35038 ft | 457 kts | 120° |
| 2026-04-25 15:52 | 43.74909 | 13.05493 | 35039 ft | 457 kts | 120° |
| 2026-04-25 15:53 | 43.71905 | 13.13225 | 35026 ft | 457 kts | 120° |
| 2026-04-25 15:53 | 43.68902 | 13.20950 | 35028 ft | 456 kts | 120° |
| 2026-04-25 15:54 | 43.65884 | 13.28665 | 35024 ft | 456 kts | 120° |
| 2026-04-25 15:54 | 43.62838 | 13.36415 | 35016 ft | 456 kts | 120° |
| 2026-04-25 15:55 | 43.59492 | 13.43779 | 35026 ft | 451 kts | 133° |
| 2026-04-25 15:55 | 43.54777 | 13.49352 | 35032 ft | 445 kts | 152° |
| 2026-04-25 15:56 | 43.49230 | 13.53041 | 35032 ft | 443 kts | 157° |
| 2026-04-25 15:56 | 43.43626 | 13.56579 | 35030 ft | 443 kts | 157° |
| 2026-04-25 15:57 | 43.38024 | 13.60115 | 35032 ft | 443 kts | 157° |
| 2026-04-25 15:57 | 43.32418 | 13.63642 | 35034 ft | 443 kts | 157° |
| 2026-04-25 15:58 | 43.26815 | 13.67149 | 35035 ft | 443 kts | 157° |
| 2026-04-25 15:58 | 43.21202 | 13.70651 | 35037 ft | 443 kts | 157° |
| 2026-04-25 15:59 | 43.15595 | 13.74145 | 35040 ft | 443 kts | 157° |
| 2026-04-25 15:59 | 43.09986 | 13.77630 | 35043 ft | 443 kts | 157° |
| 2026-04-25 16:00 | 43.06238 | 13.79959 | 35046 ft | 442 kts | 157° |
| 2026-04-25 16:00 | 42.99684 | 13.84022 | 35051 ft | 442 kts | 157° |
| 2026-04-25 16:01 | 42.94088 | 13.87490 | 35055 ft | 442 kts | 157° |
| 2026-04-25 16:01 | 42.88484 | 13.90949 | 35048 ft | 441 kts | 156° |
| 2026-04-25 16:02 | 42.82888 | 13.94408 | 35045 ft | 441 kts | 156° |
| 2026-04-25 16:02 | 42.77293 | 13.97859 | 35042 ft | 441 kts | 157° |
| 2026-04-25 16:03 | 42.71696 | 14.01292 | 35047 ft | 441 kts | 156° |
| 2026-04-25 16:03 | 42.66102 | 14.04709 | 35049 ft | 441 kts | 156° |
| 2026-04-25 16:04 | 42.60503 | 14.08119 | 35039 ft | 441 kts | 156° |
| 2026-04-25 16:04 | 42.54909 | 14.11524 | 35033 ft | 441 kts | 156° |
| 2026-04-25 16:05 | 42.49313 | 14.14930 | 35034 ft | 441 kts | 156° |
| 2026-04-25 16:05 | 42.44003 | 14.19038 | 35037 ft | 441 kts | 141° |
| 2026-04-25 16:06 | 42.41774 | 14.21886 | 35038 ft | 442 kts | 132° |
| 2026-04-25 16:06 | 42.38036 | 14.28490 | 35036 ft | 442 kts | 127° |
| 2026-04-25 16:07 | 42.34322 | 14.35201 | 35042 ft | 443 kts | 127° |
| 2026-04-25 16:07 | 42.30625 | 14.41857 | 35042 ft | 442 kts | 127° |
| 2026-04-25 16:08 | 42.26934 | 14.48490 | 35050 ft | 442 kts | 128° |
| 2026-04-25 16:08 | 42.23248 | 14.55112 | 35053 ft | 441 kts | 127° |
| 2026-04-25 16:09 | 42.19561 | 14.61729 | 35052 ft | 441 kts | 128° |
| 2026-04-25 16:09 | 42.15872 | 14.68327 | 35051 ft | 440 kts | 127° |
| 2026-04-25 16:10 | 42.12184 | 14.74911 | 35053 ft | 440 kts | 127° |
| 2026-04-25 16:10 | 42.08492 | 14.81495 | 35047 ft | 440 kts | 128° |
| 2026-04-25 16:11 | 42.04793 | 14.88058 | 35053 ft | 440 kts | 128° |
| 2026-04-25 16:11 | 42.01091 | 14.94616 | 34965 ft | 440 kts | 127° |
| 2026-04-25 16:11 | 41.99245 | 14.97888 | 34717 ft | 439 kts | 127° |
| 2026-04-25 16:12 | 41.97396 | 15.01160 | 34475 ft | 439 kts | 127° |
| 2026-04-25 16:12 | 41.95551 | 15.04420 | 34237 ft | 438 kts | 128° |
| 2026-04-25 16:12 | 41.93702 | 15.07680 | 33993 ft | 438 kts | 128° |
| 2026-04-25 16:12 | 41.92458 | 15.09868 | 33811 ft | 436 kts | 127° |
| 2026-04-25 16:13 | 41.90022 | 15.14157 | 33448 ft | 436 kts | 128° |
| 2026-04-25 16:13 | 41.88187 | 15.17387 | 33179 ft | 435 kts | 128° |
| 2026-04-25 16:13 | 41.86324 | 15.20661 | 32998 ft | 435 kts | 128° |
| 2026-04-25 16:14 | 41.82639 | 15.27111 | 33033 ft | 436 kts | 128° |
| 2026-04-25 16:14 | 41.78952 | 15.33571 | 33035 ft | 437 kts | 127° |
| 2026-04-25 16:15 | 41.75265 | 15.40030 | 33039 ft | 436 kts | 128° |
| 2026-04-25 16:15 | 41.71566 | 15.46467 | 33033 ft | 436 kts | 128° |
| 2026-04-25 16:16 | 41.67863 | 15.52900 | 33031 ft | 436 kts | 128° |
| 2026-04-25 16:16 | 41.64161 | 15.59326 | 33028 ft | 436 kts | 128° |
| 2026-04-25 16:17 | 41.60454 | 15.65748 | 33029 ft | 436 kts | 127° |
| 2026-04-25 16:17 | 41.56739 | 15.72165 | 33021 ft | 436 kts | 128° |
| 2026-04-25 16:18 | 41.53020 | 15.78570 | 33022 ft | 437 kts | 128° |
| 2026-04-25 16:18 | 41.49290 | 15.84956 | 33033 ft | 436 kts | 128° |
| 2026-04-25 16:19 | 41.45371 | 15.91134 | 33053 ft | 436 kts | 131° |
| 2026-04-25 16:19 | 41.41338 | 15.97184 | 33066 ft | 436 kts | 131° |
| 2026-04-25 16:20 | 41.35322 | 16.06305 | 33052 ft | 435 kts | 130° |
| 2026-04-25 16:21 | 41.29394 | 16.15430 | 33047 ft | 435 kts | 130° |
| 2026-04-25 16:21 | 41.25424 | 16.21494 | 33050 ft | 434 kts | 130° |
| 2026-04-25 16:22 | 41.21445 | 16.27537 | 33054 ft | 434 kts | 130° |
| 2026-04-25 16:22 | 41.17471 | 16.33569 | 33072 ft | 434 kts | 130° |
| 2026-04-25 16:23 | 41.13492 | 16.39600 | 32542 ft | 436 kts | 130° |
| 2026-04-25 16:23 | 41.11494 | 16.42625 | 31895 ft | 434 kts | 130° |
| 2026-04-25 16:23 | 41.09517 | 16.45615 | 31348 ft | 430 kts | 130° |
| 2026-04-25 16:23 | 41.07548 | 16.48588 | 30798 ft | 426 kts | 130° |
| 2026-04-25 16:24 | 41.05603 | 16.51526 | 30256 ft | 424 kts | 130° |
| 2026-04-25 16:24 | 41.03666 | 16.54455 | 29656 ft | 421 kts | 130° |
| 2026-04-25 16:24 | 41.01746 | 16.57356 | 29130 ft | 416 kts | 130° |
| 2026-04-25 16:24 | 40.99849 | 16.60214 | 28599 ft | 412 kts | 130° |
| 2026-04-25 16:25 | 40.97962 | 16.63052 | 28072 ft | 408 kts | 130° |
| 2026-04-25 16:25 | 40.97328 | 16.64002 | 27899 ft | 407 kts | 130° |
| 2026-04-25 16:25 | 40.94237 | 16.68640 | 27050 ft | 401 kts | 130° |
| 2026-04-25 16:25 | 40.92401 | 16.71394 | 26555 ft | 399 kts | 130° |
| 2026-04-25 16:26 | 40.90572 | 16.74138 | 26063 ft | 396 kts | 129° |
| 2026-04-25 16:26 | 40.88754 | 16.76860 | 25586 ft | 394 kts | 129° |
| 2026-04-25 16:26 | 40.86948 | 16.79568 | 25117 ft | 392 kts | 130° |
| 2026-04-25 16:26 | 40.85149 | 16.82262 | 24653 ft | 389 kts | 130° |
| 2026-04-25 16:27 | 40.83400 | 16.85031 | 24184 ft | 386 kts | 124° |
| 2026-04-25 16:27 | 40.82050 | 16.88071 | 23718 ft | 382 kts | 113° |
| 2026-04-25 16:27 | 40.81145 | 16.91349 | 23195 ft | 378 kts | 102° |
| 2026-04-25 16:27 | 40.80545 | 16.94699 | 22770 ft | 374 kts | 101° |
| 2026-04-25 16:28 | 40.79947 | 16.98030 | 22327 ft | 370 kts | 102° |
| 2026-04-25 16:28 | 40.79352 | 17.01321 | 21880 ft | 368 kts | 102° |
| 2026-04-25 16:28 | 40.78756 | 17.04592 | 21441 ft | 365 kts | 101° |
| 2026-04-25 16:28 | 40.78163 | 17.07834 | 20985 ft | 363 kts | 102° |
| 2026-04-25 16:29 | 40.77572 | 17.11064 | 20547 ft | 361 kts | 101° |
| 2026-04-25 16:29 | 40.76984 | 17.14275 | 20106 ft | 360 kts | 101° |
| 2026-04-25 16:29 | 40.76402 | 17.17477 | 19649 ft | 358 kts | 102° |
| 2026-04-25 16:29 | 40.75821 | 17.20670 | 19200 ft | 357 kts | 102° |
| 2026-04-25 16:30 | 40.75241 | 17.23851 | 18758 ft | 356 kts | 102° |
| 2026-04-25 16:30 | 40.74657 | 17.27025 | 18292 ft | 356 kts | 101° |
| 2026-04-25 16:30 | 40.74073 | 17.30194 | 17809 ft | 355 kts | 101° |
| 2026-04-25 16:30 | 40.73491 | 17.33344 | 17367 ft | 353 kts | 102° |
| 2026-04-25 16:31 | 40.73100 | 17.35463 | 17076 ft | 351 kts | 102° |
| 2026-04-25 16:31 | 40.72524 | 17.38583 | 16643 ft | 349 kts | 101° |
| 2026-04-25 16:31 | 40.71950 | 17.41684 | 16214 ft | 348 kts | 102° |
| 2026-04-25 16:31 | 40.71377 | 17.44780 | 15777 ft | 347 kts | 101° |
| 2026-04-25 16:32 | 40.70875 | 17.47873 | 15351 ft | 345 kts | 95° |
| 2026-04-25 16:32 | 40.70552 | 17.51006 | 14918 ft | 344 kts | 96° |
| 2026-04-25 16:32 | 40.70228 | 17.54119 | 14484 ft | 343 kts | 96° |
| 2026-04-25 16:32 | 40.69904 | 17.57240 | 14053 ft | 343 kts | 95° |
| 2026-04-25 16:33 | 40.69579 | 17.60348 | 13598 ft | 342 kts | 96° |
| 2026-04-25 16:33 | 40.69252 | 17.63447 | 13158 ft | 340 kts | 96° |
| 2026-04-25 16:33 | 40.68928 | 17.66529 | 12701 ft | 338 kts | 96° |
| 2026-04-25 16:33 | 40.68607 | 17.69584 | 12281 ft | 336 kts | 95° |
| 2026-04-25 16:34 | 40.68285 | 17.72621 | 11842 ft | 334 kts | 95° |
| 2026-04-25 16:34 | 40.67962 | 17.75645 | 11408 ft | 333 kts | 96° |
| 2026-04-25 16:34 | 40.67633 | 17.78701 | 10954 ft | 331 kts | 96° |
| 2026-04-25 16:34 | 40.67312 | 17.81695 | 10506 ft | 330 kts | 96° |
| 2026-04-25 16:35 | 40.66992 | 17.84678 | 10221 ft | 324 kts | 96° |
| 2026-04-25 16:35 | 40.66681 | 17.87556 | 10099 ft | 312 kts | 96° |
| 2026-04-25 16:35 | 40.66379 | 17.90344 | 9945 ft | 302 kts | 96° |
| 2026-04-25 16:35 | 40.66079 | 17.93076 | 9509 ft | 303 kts | 98° |
| 2026-04-25 16:36 | 40.65460 | 17.95702 | 9203 ft | 300 kts | 113° |
| 2026-04-25 16:36 | 40.65144 | 17.96528 | 9074 ft | 300 kts | 118° |
| 2026-04-25 16:36 | 40.63227 | 18.00347 | 8394 ft | 300 kts | 122° |
| 2026-04-25 16:36 | 40.62068 | 18.02618 | 7989 ft | 298 kts | 123° |
| 2026-04-25 16:37 | 40.60916 | 18.04877 | 7613 ft | 296 kts | 123° |
| 2026-04-25 16:37 | 40.59770 | 18.07123 | 7217 ft | 295 kts | 123° |
| 2026-04-25 16:37 | 40.58633 | 18.09351 | 6820 ft | 293 kts | 123° |
| 2026-04-25 16:37 | 40.57491 | 18.11587 | 6200 ft | 299 kts | 123° |
| 2026-04-25 16:38 | 40.56328 | 18.13855 | 5541 ft | 295 kts | 123° |
| 2026-04-25 16:38 | 40.55221 | 18.16007 | 5335 ft | 273 kts | 123° |
| 2026-04-25 16:38 | 40.54194 | 18.17995 | 5216 ft | 253 kts | 125° |
| 2026-04-25 16:38 | 40.52915 | 18.19514 | 5142 ft | 244 kts | 160° |
| 2026-04-25 16:39 | 40.51297 | 18.19744 | 5096 ft | 238 kts | 198° |
| 2026-04-25 16:39 | 40.49909 | 18.18654 | 5042 ft | 229 kts | 235° |
| 2026-04-25 16:39 | 40.49297 | 18.16794 | 4997 ft | 221 kts | 269° |
| 2026-04-25 16:39 | 40.49532 | 18.14830 | 4667 ft | 223 kts | 299° |
| 2026-04-25 16:40 | 40.50545 | 18.13256 | 4116 ft | 230 kts | 317° |
| 2026-04-25 16:40 | 40.51735 | 18.11840 | 3720 ft | 230 kts | 318° |
| 2026-04-25 16:40 | 40.52912 | 18.10428 | 3403 ft | 227 kts | 317° |
| 2026-04-25 16:40 | 40.54047 | 18.09052 | 3101 ft | 216 kts | 317° |
| 2026-04-25 16:41 | 40.55120 | 18.07747 | 2827 ft | 205 kts | 318° |
| 2026-04-25 16:41 | 40.55804 | 18.06916 | 2658 ft | 200 kts | 318° |
| 2026-04-25 16:41 | 40.58083 | 18.04143 | 2081 ft | 178 kts | 318° |
| 2026-04-25 16:42 | 40.58966 | 18.03068 | 1829 ft | 168 kts | 318° |
| 2026-04-25 16:42 | 40.59793 | 18.02060 | 1611 ft | 155 kts | 318° |
| 2026-04-25 16:42 | 40.60544 | 18.01145 | 1415 ft | 141 kts | 318° |
| 2026-04-25 16:42 | 40.61250 | 18.00285 | 1233 ft | 136 kts | 318° |
| 2026-04-25 16:43 | 40.61940 | 17.99444 | 1049 ft | 134 kts | 318° |
| 2026-04-25 16:43 | 40.62621 | 17.98614 | 875 ft | 133 kts | 318° |
| 2026-04-25 16:43 | 40.63296 | 17.97790 | 706 ft | 132 kts | 318° |
| 2026-04-25 16:43 | 40.63968 | 17.96972 | 536 ft | 132 kts | 319° |
| 2026-04-25 16:44 | 40.64646 | 17.96145 | 368 ft | 133 kts | 319° |
| 2026-04-25 16:44 | 40.65323 | 17.95318 | 193 ft | 132 kts | 319° |
| 2026-04-25 16:44 | 40.65993 | 17.94500 | 34 ft | 128 kts | 317° |
| 2026-04-25 16:44 | 40.66627 | 17.93730 | 33 ft | 132 kts | 316° |
| 2026-04-25 16:45 | 40.67285 | 17.92919 | 33 ft | 83 kts | 317° |
| 2026-04-25 16:45 | 40.67465 | 17.92703 | 32 ft | 20 kts | 318° |
| 2026-04-25 16:45 | 40.67571 | 17.92630 | 32 ft | 15 kts | 27° |
| 2026-04-25 16:45 | 40.67636 | 17.92735 | 33 ft | 15 kts | 67° |
| 2026-04-25 16:46 | 40.67594 | 17.92843 | 33 ft | 14 kts | 139° |
| 2026-04-25 16:46 | 40.67527 | 17.92921 | 33 ft | 12 kts | 138° |
| 2026-04-25 16:46 | 40.67465 | 17.92992 | 33 ft | 11 kts | 139° |
| 2026-04-25 16:46 | 40.67447 | 17.93014 | 33 ft | 11 kts | 139° |
| 2026-04-25 16:47 | 40.67341 | 17.93140 | 33 ft | 18 kts | 134° |
| 2026-04-25 16:47 | 40.67233 | 17.93278 | 33 ft | 24 kts | 136° |
| 2026-04-25 16:47 | 40.67109 | 17.93431 | 33 ft | 24 kts | 137° |
| 2026-04-25 16:47 | 40.66982 | 17.93587 | 33 ft | 25 kts | 137° |
| 2026-04-25 16:48 | 40.66850 | 17.93748 | 33 ft | 26 kts | 137° |
| 2026-04-25 16:48 | 40.66712 | 17.93916 | 33 ft | 28 kts | 137° |
| 2026-04-25 16:48 | 40.66566 | 17.94093 | 34 ft | 29 kts | 137° |
| 2026-04-25 16:48 | 40.66414 | 17.94276 | 34 ft | 30 kts | 138° |
| 2026-04-25 16:49 | 40.66281 | 17.94439 | 33 ft | 22 kts | 137° |
| 2026-04-25 16:49 | 40.66173 | 17.94569 | 33 ft | 20 kts | 137° |
| 2026-04-25 16:49 | 40.66078 | 17.94683 | 33 ft | 13 kts | 138° |
| 2026-04-25 16:49 | 40.66006 | 17.94664 | 33 ft | 11 kts | 230° |
| 2026-04-25 16:50 | 40.65958 | 17.94583 | 32 ft | 11 kts | 232° |
| 2026-04-25 16:50 | 40.65916 | 17.94510 | 32 ft | 9 kts | 232° |
| 2026-04-25 16:50 | 40.65880 | 17.94448 | 32 ft | 8 kts | 233° |
| 2026-04-25 16:50 | 40.65851 | 17.94398 | 32 ft | 6 kts | 233° |
| 2026-04-25 16:51 | 40.65809 | 17.94326 | 33 ft | 13 kts | 232° |
| 2026-04-25 16:51 | 40.65770 | 17.94243 | 33 ft | 9 kts | 274° |
| 2026-04-25 16:51 | 40.65820 | 17.94198 | 33 ft | 10 kts | 344° |
| 2026-04-25 16:51 | 40.65839 | 17.94192 | 33 ft | 6 kts | 347° |
| 2026-04-25 16:52 | 40.65852 | 17.94188 | 32 ft | 0 kts | 347° |